createdAt,value
2018-06-15T00:00:58.597Z,39.93
2018-06-15T00:04:02.890Z,35.60
2018-06-15T00:07:07.219Z,31.90
2018-06-15T00:10:11.501Z,34.77
2018-06-15T00:13:15.776Z,31.67
2018-06-15T00:16:20.087Z,26.73
2018-06-15T00:19:24.419Z,33.93
2018-06-15T00:22:28.692Z,31.10
2018-06-15T00:25:33.021Z,33.37
2018-06-15T00:28:37.329Z,28.90
2018-06-15T00:31:44.127Z,31.17
2018-06-15T00:34:48.485Z,31.00
2018-06-15T00:37:52.873Z,29.30
2018-06-15T00:40:57.142Z,25.60
2018-06-15T00:44:01.446Z,30.80
2018-06-15T00:47:06.316Z,28.30
2018-06-15T00:50:10.605Z,29.07
2018-06-15T00:53:14.901Z,25.17
2018-06-15T00:56:19.159Z,24.87
2018-06-15T00:59:25.796Z,29.97
2018-06-15T01:02:30.189Z,24.93
2018-06-15T01:05:34.530Z,22.97
2018-06-15T01:08:38.818Z,23.13
2018-06-15T01:11:42.943Z,25.47
2018-06-15T01:14:47.196Z,25.67
2018-06-15T01:17:51.470Z,16.20
2018-06-15T01:20:56.025Z,25.87
2018-06-15T01:24:00.692Z,27.47
2018-06-15T01:27:05.643Z,17.97
2018-06-15T01:30:10.375Z,21.43
2018-06-15T01:33:14.801Z,23.07
2018-06-15T01:36:19.277Z,28.70
2018-06-15T01:39:23.658Z,24.33
2018-06-15T01:42:28.021Z,22.70
2018-06-15T01:45:32.602Z,25.87
2018-06-15T01:48:37.012Z,22.37
2018-06-15T01:51:41.067Z,20.93
2018-06-15T01:54:45.355Z,23.23
2018-06-15T01:57:49.933Z,24.70
2018-06-15T02:00:54.229Z,21.37
2018-06-15T02:03:58.577Z,25.23
2018-06-15T02:07:02.841Z,23.10
2018-06-15T02:10:07.187Z,16.57
2018-06-15T02:13:11.441Z,15.80
2018-06-15T02:16:16.489Z,25.33
2018-06-15T02:19:20.828Z,18.87
2018-06-15T02:22:25.156Z,22.27
2018-06-15T02:25:29.744Z,24.40
2018-06-15T02:28:34.003Z,26.77
2018-06-15T02:31:38.325Z,24.63
2018-06-15T02:34:42.381Z,18.00
2018-06-15T02:37:46.644Z,23.03
2018-06-15T02:40:50.982Z,25.73
2018-06-15T02:43:55.267Z,20.20
2018-06-15T02:46:59.540Z,20.70
2018-06-15T02:50:04.004Z,21.87
2018-06-15T02:53:08.261Z,19.17
2018-06-15T02:56:12.612Z,21.33
2018-06-15T02:59:16.904Z,24.90
2018-06-15T03:02:21.230Z,25.30
2018-06-15T03:05:25.551Z,23.33
2018-06-15T03:08:29.696Z,26.10
2018-06-15T03:11:33.993Z,25.07
2018-06-15T03:14:38.310Z,25.80
2018-06-15T03:17:42.589Z,26.93
2018-06-15T03:20:46.845Z,24.90
2018-06-15T03:23:51.201Z,18.80
2018-06-15T03:26:55.499Z,20.00
2018-06-15T03:29:59.816Z,20.97
2018-06-15T03:33:04.141Z,20.70
2018-06-15T03:36:08.471Z,21.17
2018-06-15T03:39:13.385Z,19.83
2018-06-15T03:42:18.663Z,17.23
2018-06-15T03:45:25.210Z,19.57
2018-06-15T03:48:29.536Z,19.93
2018-06-15T03:51:35.344Z,16.17
2018-06-15T03:54:39.603Z,15.83
2018-06-15T03:57:43.932Z,17.63
2018-06-15T04:00:48.344Z,20.60
2018-06-15T04:03:52.768Z,21.53
2018-06-15T04:07:01.017Z,16.13
2018-06-15T04:10:05.332Z,25.23
2018-06-15T04:13:09.675Z,21.97
2018-06-15T04:16:14.049Z,18.40
2018-06-15T04:19:18.368Z,20.13
2018-06-15T04:22:22.714Z,23.17
2018-06-15T04:25:27.079Z,20.43
2018-06-15T04:28:31.434Z,16.37
2018-06-15T04:31:35.752Z,19.00
2018-06-15T04:34:40.174Z,21.53
2018-06-15T04:37:44.648Z,21.17
2018-06-15T04:40:48.928Z,16.33
2018-06-15T04:43:53.217Z,20.90
2018-06-15T04:46:57.584Z,20.33
2018-06-15T04:50:01.887Z,24.50
2018-06-15T04:53:06.439Z,20.97
2018-06-15T04:56:10.791Z,21.20
2018-06-15T04:59:15.147Z,17.00
2018-06-15T05:02:19.541Z,13.50
2018-06-15T05:05:23.996Z,21.63
2018-06-15T05:08:28.320Z,20.47
2018-06-15T05:11:32.701Z,28.03
2018-06-15T05:14:37.140Z,19.80
2018-06-15T05:17:41.492Z,24.60
2018-06-15T05:20:45.844Z,19.77
2018-06-15T05:23:50.095Z,19.13
2018-06-15T05:26:54.423Z,14.03
2018-06-15T05:29:58.692Z,19.17
2018-06-15T05:33:03.022Z,17.40
2018-06-15T05:36:07.318Z,14.57
2018-06-15T05:39:12.327Z,18.43
2018-06-15T05:42:16.667Z,21.57
2018-06-15T05:45:21.018Z,17.17
2018-06-15T05:48:25.315Z,15.60
2018-06-15T05:51:29.665Z,16.23
2018-06-15T05:54:33.945Z,16.17
2018-06-15T05:57:38.405Z,18.77
2018-06-15T06:00:42.754Z,21.20
2018-06-15T06:03:47.076Z,13.47
2018-06-15T06:06:51.324Z,16.73
2018-06-15T06:09:55.669Z,14.70
2018-06-15T06:12:59.691Z,16.00
2018-06-15T06:16:04.018Z,12.27
2018-06-15T06:19:08.308Z,19.87
2018-06-15T06:22:12.636Z,14.87
2018-06-15T06:25:17.021Z,16.73
2018-06-15T06:28:21.231Z,14.30
2018-06-15T06:31:25.585Z,18.70
2018-06-15T06:34:29.941Z,13.67
2018-06-15T06:37:34.242Z,13.63
2018-06-15T06:40:38.562Z,12.60
2018-06-15T06:43:42.909Z,15.43
2018-06-15T06:46:47.214Z,19.90
2018-06-15T06:49:51.513Z,15.47
2018-06-15T06:52:55.861Z,16.03
2018-06-15T06:56:00.258Z,13.50
2018-06-15T06:59:04.583Z,12.47
2018-06-15T07:02:08.873Z,11.60
2018-06-15T07:05:13.242Z,14.13
2018-06-15T07:08:17.581Z,7.37
2018-06-15T07:11:21.868Z,12.03
2018-06-15T07:14:26.181Z,12.00
2018-06-15T07:17:30.479Z,11.67
2018-06-15T07:20:34.729Z,8.50
2018-06-15T07:23:39.092Z,10.23
2018-06-15T07:26:43.379Z,10.30
2018-06-15T07:29:47.705Z,11.57
2018-06-15T07:32:52.020Z,15.87
2018-06-15T07:35:56.385Z,9.57
2018-06-15T07:39:00.752Z,13.87
2018-06-15T07:42:07.693Z,10.67
2018-06-15T07:45:11.965Z,9.83
2018-06-15T07:48:16.263Z,8.67
2018-06-15T07:51:20.631Z,9.33
2018-06-15T07:54:24.854Z,7.37
2018-06-15T07:57:29.128Z,9.20
2018-06-15T08:00:33.484Z,8.87
2018-06-15T08:03:37.753Z,8.07
2018-06-15T08:06:42.449Z,7.53
2018-06-15T08:09:46.749Z,11.43
2018-06-15T08:12:50.992Z,7.30
2018-06-15T08:15:55.399Z,7.27
2018-06-15T08:18:59.683Z,10.07
2018-06-15T08:22:03.998Z,8.27
2018-06-15T08:25:08.265Z,7.87
2018-06-15T08:28:12.528Z,10.40
2018-06-15T08:31:16.992Z,8.67
2018-06-15T08:34:21.356Z,11.03
2018-06-15T08:37:25.684Z,11.73
2018-06-15T08:40:29.969Z,10.07
2018-06-15T08:43:34.239Z,6.47
2018-06-15T08:46:38.927Z,11.33
2018-06-15T08:49:43.219Z,8.90
2018-06-15T08:52:47.663Z,9.23
2018-06-15T08:55:52.071Z,7.33
2018-06-15T08:58:56.475Z,10.30
2018-06-15T09:02:00.900Z,8.10
2018-06-15T09:05:05.190Z,8.80
2018-06-15T09:08:09.497Z,11.60
2018-06-15T09:11:13.821Z,6.00
2018-06-15T09:14:18.128Z,7.13
2018-06-15T09:17:22.452Z,12.93
2018-06-15T09:20:26.772Z,5.43
2018-06-15T09:23:31.093Z,8.87
2018-06-15T09:26:35.417Z,9.43
2018-06-15T09:29:39.699Z,6.13
2018-06-15T09:32:44.129Z,9.37
2018-06-15T09:35:49.364Z,13.63
2018-06-15T09:38:53.749Z,6.83
2018-06-15T09:41:58.065Z,7.43
2018-06-15T09:45:02.354Z,5.70
2018-06-15T09:48:07.238Z,13.77
2018-06-15T09:51:12.354Z,8.13
2018-06-15T09:54:16.644Z,7.57
2018-06-15T09:57:20.977Z,11.27
2018-06-15T10:00:30.621Z,6.57
2018-06-15T10:03:34.887Z,5.90
2018-06-15T10:06:39.242Z,8.67
2018-06-15T10:09:43.566Z,8.50
2018-06-15T10:12:47.876Z,7.20
2018-06-15T10:15:52.385Z,7.50
2018-06-15T10:18:57.956Z,7.07
2018-06-15T10:22:02.303Z,10.03
2018-06-15T10:25:06.598Z,6.57
2018-06-15T10:28:10.948Z,6.77
2018-06-15T10:31:15.313Z,8.43
2018-06-15T10:34:19.648Z,13.40
2018-06-15T10:37:24.011Z,5.73
2018-06-15T10:40:28.369Z,8.40
2018-06-15T10:43:32.713Z,7.17
2018-06-15T10:46:37.017Z,6.53
2018-06-15T10:49:41.309Z,6.70
2018-06-15T10:52:45.579Z,5.73
2018-06-15T10:55:49.924Z,5.77
2018-06-15T10:58:54.206Z,7.07
2018-06-15T11:01:58.524Z,6.07
2018-06-15T11:05:02.854Z,5.87
2018-06-15T11:08:07.173Z,9.30
2018-06-15T11:11:11.519Z,8.13
2018-06-15T11:14:15.787Z,6.90
2018-06-15T11:17:20.121Z,8.00
2018-06-15T11:20:24.449Z,8.20
2018-06-15T11:23:28.765Z,7.43
2018-06-15T11:26:33.117Z,8.40
2018-06-15T11:29:37.508Z,5.57
2018-06-15T11:32:41.820Z,5.47
2018-06-15T11:35:46.165Z,9.87
2018-06-15T11:38:50.442Z,13.10
2018-06-15T11:41:54.904Z,6.20
2018-06-15T11:44:59.175Z,7.40
2018-06-15T11:48:03.544Z,7.00
2018-06-15T11:51:08.036Z,6.70
2018-06-15T11:54:12.390Z,10.00
2018-06-15T11:57:16.696Z,5.37
2018-06-15T12:00:21.043Z,8.30
2018-06-15T12:03:25.324Z,4.63
2018-06-15T12:06:29.661Z,6.23
2018-06-15T12:09:33.924Z,10.40
2018-06-15T12:12:38.321Z,5.60
2018-06-15T12:15:42.601Z,7.77
2018-06-15T12:18:46.936Z,8.13
2018-06-15T12:21:51.512Z,9.90
2018-06-15T12:24:56.204Z,8.87
2018-06-15T12:28:00.511Z,5.87
2018-06-15T12:31:04.820Z,6.23
2018-06-15T12:34:11.945Z,6.47
2018-06-15T12:37:16.247Z,5.37
2018-06-15T12:40:20.515Z,7.23
2018-06-15T12:43:24.856Z,7.73
2018-06-15T12:46:29.213Z,8.70
2018-06-15T12:49:33.646Z,7.90
2018-06-15T12:52:38.091Z,6.93
2018-06-15T12:55:42.454Z,8.43
2018-06-15T12:58:46.769Z,11.57
2018-06-15T13:01:51.095Z,8.60
2018-06-15T13:04:55.384Z,7.97
2018-06-15T13:07:59.743Z,8.83
2018-06-15T13:11:04.311Z,7.90
2018-06-15T13:14:08.575Z,8.40
2018-06-15T13:17:12.711Z,8.67
2018-06-15T13:20:17.013Z,4.60
2018-06-15T13:23:21.284Z,7.30
2018-06-15T13:26:25.673Z,9.43
2018-06-15T13:29:29.965Z,9.20
2018-06-15T13:32:34.279Z,5.57
2018-06-15T13:35:38.772Z,8.40
2018-06-15T13:38:44.679Z,8.10
2018-06-15T13:41:49.464Z,6.50
2018-06-15T13:44:53.732Z,6.03
2018-06-15T13:47:58.884Z,11.47
2018-06-15T13:51:03.179Z,7.23
2018-06-15T13:54:07.522Z,10.17
2018-06-15T13:57:11.868Z,5.80
2018-06-15T14:00:16.112Z,6.83
2018-06-15T14:03:20.395Z,8.87
2018-06-15T14:06:24.717Z,6.67
2018-06-15T14:09:28.948Z,11.63
2018-06-15T14:12:33.302Z,7.60
2018-06-15T14:15:37.349Z,8.47
2018-06-15T14:18:41.625Z,7.33
2018-06-15T14:21:45.961Z,12.23
2018-06-15T14:24:50.072Z,8.77
2018-06-15T14:27:54.387Z,6.27
2018-06-15T14:30:58.692Z,6.40
2018-06-15T14:34:03.024Z,7.47
2018-06-15T14:37:07.351Z,6.93
2018-06-15T14:40:11.612Z,7.00
2018-06-15T14:43:15.979Z,6.30
2018-06-15T14:46:20.327Z,9.07
2018-06-15T14:49:25.026Z,7.30
2018-06-15T14:52:29.342Z,9.20
2018-06-15T14:55:33.672Z,7.77
2018-06-15T14:58:38.029Z,6.67
2018-06-15T15:01:42.288Z,7.30
2018-06-15T15:04:46.364Z,6.20
2018-06-15T15:07:50.639Z,7.57
2018-06-15T15:10:54.709Z,8.33
2018-06-15T15:13:58.983Z,6.97
2018-06-15T15:17:03.121Z,7.83
2018-06-15T15:20:07.396Z,4.30
2018-06-15T15:23:11.676Z,4.37
2018-06-15T15:26:15.956Z,8.97
2018-06-15T15:29:20.245Z,3.90
2018-06-15T15:32:24.560Z,6.43
2018-06-15T15:35:29.150Z,5.77
2018-06-15T15:38:33.530Z,6.93
2018-06-15T15:41:37.829Z,7.30
2018-06-15T15:44:42.155Z,7.60
2018-06-15T15:47:46.501Z,4.43
2018-06-15T15:50:50.888Z,8.20
2018-06-15T15:53:55.160Z,5.53
2018-06-15T15:56:59.573Z,6.87
2018-06-15T16:00:04.000Z,5.57
2018-06-15T16:03:08.393Z,7.27
2018-06-15T16:06:12.717Z,6.67
2018-06-15T16:09:16.983Z,9.17
2018-06-15T16:12:21.512Z,6.17
2018-06-15T16:15:25.851Z,5.90
2018-06-15T16:18:30.181Z,6.57
2018-06-15T16:21:34.473Z,6.50
2018-06-15T16:24:38.830Z,7.43
2018-06-15T16:27:43.134Z,6.93
2018-06-15T16:30:47.496Z,6.00
2018-06-15T16:33:51.906Z,9.57
2018-06-15T16:36:56.330Z,4.83
2018-06-15T16:40:00.637Z,6.83
2018-06-15T16:43:04.904Z,8.00
2018-06-15T16:46:09.309Z,6.87
2018-06-15T16:49:13.689Z,6.23
2018-06-15T16:52:17.966Z,4.00
2018-06-15T16:55:22.304Z,4.70
2018-06-15T16:58:26.590Z,7.70
2018-06-15T17:01:30.948Z,5.73
2018-06-15T17:04:35.298Z,6.03
2018-06-15T17:07:39.687Z,6.00
2018-06-15T17:10:44.037Z,6.43
2018-06-15T17:13:48.494Z,7.20
2018-06-15T17:16:52.894Z,5.67
2018-06-15T17:19:57.312Z,6.00
2018-06-15T17:23:01.767Z,6.13
2018-06-15T17:26:06.147Z,4.37
2018-06-15T17:29:10.434Z,5.53
2018-06-15T17:32:14.781Z,5.60
2018-06-15T17:35:19.167Z,6.03
2018-06-15T17:38:23.757Z,6.83
2018-06-15T17:41:28.056Z,6.13
2018-06-15T17:44:32.406Z,7.80
2018-06-15T17:47:36.693Z,4.80
2018-06-15T17:50:41.074Z,7.43
2018-06-15T17:53:45.696Z,5.40
2018-06-15T17:56:50.093Z,5.70
2018-06-15T17:59:54.415Z,4.67
2018-06-15T18:02:58.772Z,6.30
2018-06-15T18:06:03.102Z,6.93
2018-06-15T18:09:10.404Z,9.77
2018-06-15T18:12:14.830Z,7.17
2018-06-15T18:15:19.181Z,8.10
2018-06-15T18:18:23.427Z,7.80
2018-06-15T18:21:27.755Z,11.97
2018-06-15T18:24:32.086Z,7.90
2018-06-15T18:27:36.435Z,6.63
2018-06-15T18:30:40.848Z,6.03
2018-06-15T18:33:45.161Z,5.37
2018-06-15T18:36:49.517Z,7.83
2018-06-15T18:39:54.191Z,5.03
2018-06-15T18:42:58.511Z,6.03
2018-06-15T18:46:02.870Z,6.17
2018-06-15T18:49:07.617Z,5.93
2018-06-15T18:52:12.034Z,7.37
2018-06-15T18:55:16.734Z,5.93
2018-06-15T18:58:21.046Z,7.93
2018-06-15T19:01:25.647Z,5.87
2018-06-15T19:04:30.094Z,6.87
2018-06-15T19:07:34.552Z,6.27
2018-06-15T19:10:38.841Z,5.57
2018-06-15T19:13:44.324Z,6.83
2018-06-15T19:16:48.732Z,6.37
2018-06-15T19:19:53.021Z,7.57
2018-06-15T19:23:02.607Z,7.17
2018-06-15T19:26:06.861Z,5.97
2018-06-15T19:29:11.341Z,6.20
2018-06-15T19:32:15.739Z,5.73
2018-06-15T19:35:20.316Z,9.47
2018-06-15T19:38:24.667Z,11.43
2018-06-15T19:41:29.057Z,7.87
2018-06-15T19:44:33.437Z,8.83
2018-06-15T19:47:37.857Z,8.37
2018-06-15T19:50:42.254Z,7.67
2018-06-15T19:53:46.506Z,8.97
2018-06-15T19:56:50.886Z,9.90
2018-06-15T19:59:55.232Z,9.57
2018-06-15T20:02:59.640Z,11.37
2018-06-15T20:06:04.084Z,12.53
2018-06-15T20:09:09.223Z,10.60
2018-06-15T20:12:13.665Z,8.83
2018-06-15T20:15:18.040Z,13.53
2018-06-15T20:18:22.349Z,11.97
2018-06-15T20:21:26.596Z,10.37
2018-06-15T20:24:30.958Z,11.37
2018-06-15T20:27:35.219Z,10.47
2018-06-15T20:30:39.509Z,9.77
2018-06-15T20:33:43.848Z,9.57
2018-06-15T20:36:48.128Z,8.70
2018-06-15T20:39:52.500Z,9.50
2018-06-15T20:42:56.802Z,11.77
2018-06-15T20:46:01.107Z,9.77
2018-06-15T20:49:05.733Z,9.90
2018-06-15T20:52:10.321Z,8.77
2018-06-15T20:55:14.804Z,10.80
2018-06-15T20:58:19.335Z,9.47
2018-06-15T21:01:23.729Z,13.87
2018-06-15T21:04:28.035Z,16.33
2018-06-15T21:07:33.548Z,11.23
2018-06-15T21:10:38.091Z,9.70
2018-06-15T21:13:42.400Z,10.40
2018-06-15T21:16:46.797Z,10.57
2018-06-15T21:19:51.357Z,14.83
2018-06-15T21:22:55.731Z,16.50
2018-06-15T21:26:00.035Z,11.97
2018-06-15T21:29:04.879Z,12.07
2018-06-15T21:32:09.184Z,7.57
2018-06-15T21:35:13.614Z,10.00
2018-06-15T21:38:17.914Z,11.80
2018-06-15T21:41:22.253Z,11.73
2018-06-15T21:44:26.681Z,12.47
2018-06-15T21:47:31.081Z,10.60
2018-06-15T21:50:35.792Z,10.13
2018-06-15T21:53:40.085Z,11.77
2018-06-15T21:56:44.549Z,9.50
2018-06-15T21:59:48.798Z,7.07
2018-06-15T22:02:53.281Z,7.63
2018-06-15T22:05:57.657Z,6.47
2018-06-15T22:09:02.004Z,6.93
2018-06-15T22:12:06.346Z,10.23
2018-06-15T22:15:10.781Z,7.83
2018-06-15T22:18:15.062Z,9.20
2018-06-15T22:21:19.406Z,8.10
2018-06-15T22:24:24.155Z,9.93
2018-06-15T22:27:28.512Z,10.03
2018-06-15T22:30:32.848Z,9.87
2018-06-15T22:33:37.173Z,9.37
2018-06-15T22:36:41.987Z,7.30
2018-06-15T22:39:46.397Z,8.83
2018-06-15T22:42:50.758Z,9.70
2018-06-15T22:45:54.912Z,9.50
2018-06-15T22:48:59.343Z,6.70
2018-06-15T22:52:03.954Z,11.10
2018-06-15T22:55:08.539Z,7.43
2018-06-15T22:58:13.008Z,7.90
2018-06-15T23:01:17.422Z,7.87
2018-06-15T23:04:21.733Z,9.57
2018-06-15T23:07:26.161Z,8.97
2018-06-15T23:10:30.606Z,8.60
2018-06-15T23:13:35.129Z,10.07
2018-06-15T23:16:39.519Z,9.27
2018-06-15T23:19:44.070Z,8.93
2018-06-15T23:22:48.485Z,7.40
2018-06-15T23:25:52.843Z,7.57
2018-06-15T23:28:57.228Z,8.07
2018-06-15T23:32:02.413Z,9.50
2018-06-15T23:35:06.891Z,10.33
2018-06-15T23:38:11.297Z,8.20
2018-06-15T23:41:15.642Z,13.13
2018-06-15T23:44:20.015Z,9.73
2018-06-15T23:47:24.667Z,11.53
2018-06-15T23:50:29.108Z,8.47
2018-06-15T23:53:33.747Z,10.47
2018-06-15T23:56:38.070Z,9.80
2018-06-15T23:59:42.575Z,10.20
